createdAt,value
2017-05-05T00:00:27.963Z,0
2017-05-05T00:01:40.480Z,0
2017-05-05T00:02:52.984Z,0
2017-05-05T00:04:05.223Z,0
2017-05-05T00:05:17.771Z,0
2017-05-05T00:06:30.290Z,0
2017-05-05T00:07:42.539Z,0
2017-05-05T00:08:55.068Z,0
2017-05-05T00:10:07.306Z,0
2017-05-05T00:11:19.548Z,0
2017-05-05T00:12:32.079Z,0
2017-05-05T00:13:44.600Z,0
2017-05-05T00:14:57.140Z,0
2017-05-05T00:16:09.682Z,0
2017-05-05T00:17:21.910Z,0
2017-05-05T00:18:34.448Z,0
2017-05-05T00:19:46.680Z,0
2017-05-05T00:20:58.899Z,0
2017-05-05T00:22:11.121Z,0
2017-05-05T00:23:23.346Z,0
2017-05-05T00:24:35.880Z,0
2017-05-05T00:25:48.386Z,0
2017-05-05T00:27:00.927Z,0
2017-05-05T00:28:13.454Z,0
2017-05-05T00:29:26.020Z,0
2017-05-05T00:30:38.233Z,0
2017-05-05T00:31:50.760Z,0
2017-05-05T00:33:03.286Z,0
2017-05-05T00:34:15.533Z,0
2017-05-05T00:35:28.067Z,0
2017-05-05T00:36:40.595Z,0
2017-05-05T00:37:52.843Z,0
2017-05-05T00:39:05.388Z,0
2017-05-05T00:40:17.611Z,0
2017-05-05T00:41:30.157Z,0
2017-05-05T00:42:42.656Z,0
2017-05-05T00:43:55.169Z,0
2017-05-05T00:45:07.394Z,0
2017-05-05T00:46:19.916Z,0
2017-05-05T00:47:32.450Z,0
2017-05-05T00:48:44.703Z,0
2017-05-05T00:49:57.529Z,0
2017-05-05T00:51:10.075Z,0
2017-05-05T00:52:22.294Z,0
2017-05-05T00:53:34.813Z,0
2017-05-05T00:54:47.065Z,0
2017-05-05T00:55:59.307Z,0
2017-05-05T00:57:11.518Z,0
2017-05-05T00:58:23.756Z,0
2017-05-05T00:59:36.009Z,0
2017-05-05T01:00:48.240Z,0
2017-05-05T01:02:00.479Z,0
2017-05-05T01:03:13.008Z,0
2017-05-05T01:04:25.208Z,0
2017-05-05T01:05:37.747Z,0
2017-05-05T01:06:50.261Z,0
2017-05-05T01:08:02.782Z,0
2017-05-05T01:09:15.311Z,0
2017-05-05T01:10:27.833Z,0
2017-05-05T01:11:40.657Z,0
2017-05-05T01:12:53.197Z,0
2017-05-05T01:14:05.737Z,0
2017-05-05T01:15:17.684Z,0
2017-05-05T01:16:30.227Z,0
2017-05-05T01:17:42.759Z,0
2017-05-05T01:18:55.268Z,0
2017-05-05T01:20:07.225Z,0
2017-05-05T01:21:19.744Z,0
2017-05-05T01:22:32.242Z,0
2017-05-05T01:23:44.763Z,0
2017-05-05T01:24:57.303Z,0
2017-05-05T01:26:09.545Z,0
2017-05-05T01:27:22.068Z,0
2017-05-05T01:28:34.614Z,0
2017-05-05T01:29:47.143Z,0
2017-05-05T01:30:59.360Z,0
2017-05-05T01:32:11.882Z,0
2017-05-05T01:33:24.405Z,0
2017-05-05T01:34:36.904Z,0
2017-05-05T01:35:49.422Z,0
2017-05-05T01:37:01.959Z,0
2017-05-05T01:38:14.207Z,0
2017-05-05T01:39:27.012Z,0
2017-05-05T01:40:39.559Z,0
2017-05-05T01:41:51.801Z,0
2017-05-05T01:43:04.347Z,0
2017-05-05T01:44:16.583Z,0
2017-05-05T01:45:29.102Z,0
2017-05-05T01:46:41.353Z,0
2017-05-05T01:47:53.899Z,0
2017-05-05T01:49:06.450Z,0
2017-05-05T01:50:18.687Z,0
2017-05-05T01:51:31.221Z,0
2017-05-05T01:52:43.790Z,0
2017-05-05T01:53:56.317Z,0
2017-05-05T01:55:08.871Z,0
2017-05-05T01:56:21.454Z,0
2017-05-05T01:57:33.696Z,0
2017-05-05T01:58:46.238Z,0
2017-05-05T01:59:58.767Z,0
2017-05-05T02:01:10.388Z,0
2017-05-05T02:02:22.312Z,0
2017-05-05T02:03:34.827Z,0
2017-05-05T02:04:47.021Z,0
2017-05-05T02:05:58.963Z,0
2017-05-05T02:07:11.481Z,0
2017-05-05T02:08:24.005Z,0
2017-05-05T02:09:36.547Z,0
2017-05-05T02:10:49.077Z,0
2017-05-05T02:12:01.021Z,0
2017-05-05T02:13:13.550Z,0
2017-05-05T02:14:26.107Z,0
2017-05-05T02:15:38.638Z,0
2017-05-05T02:16:50.859Z,0
2017-05-05T02:18:03.393Z,0
2017-05-05T02:19:15.629Z,0
2017-05-05T02:20:28.193Z,0
2017-05-05T02:21:40.718Z,0
2017-05-05T02:22:53.283Z,0
2017-05-05T02:24:05.811Z,0
2017-05-05T02:25:18.054Z,0
2017-05-05T02:26:30.568Z,0
2017-05-05T02:27:42.794Z,0
2017-05-05T02:28:55.317Z,0
2017-05-05T02:30:07.565Z,0
2017-05-05T02:31:19.799Z,0
2017-05-05T02:32:32.348Z,0
2017-05-05T02:33:44.851Z,0
2017-05-05T02:34:56.772Z,0
2017-05-05T02:36:09.290Z,0
2017-05-05T02:37:21.557Z,0
2017-05-05T02:38:33.481Z,0
2017-05-05T02:39:46.019Z,0
2017-05-05T02:40:58.528Z,0
2017-05-05T02:42:10.478Z,0
2017-05-05T02:43:23.027Z,0
2017-05-05T02:44:35.590Z,0
2017-05-05T02:45:48.133Z,0
2017-05-05T02:47:00.049Z,0
2017-05-05T02:48:12.594Z,0
2017-05-05T02:49:24.845Z,0
2017-05-05T02:50:37.396Z,0
2017-05-05T02:51:49.941Z,0
2017-05-05T02:53:02.458Z,0
2017-05-05T02:54:14.697Z,0
2017-05-05T02:55:27.242Z,0
2017-05-05T02:56:39.745Z,0
2017-05-05T02:57:52.284Z,0
2017-05-05T02:59:04.864Z,0
2017-05-05T03:00:17.354Z,0
2017-05-05T03:01:29.879Z,0
2017-05-05T03:02:42.129Z,0
2017-05-05T03:03:54.672Z,0
2017-05-05T03:05:07.172Z,0
2017-05-05T03:06:20.013Z,0
2017-05-05T03:07:32.529Z,0
2017-05-05T03:08:45.061Z,0
2017-05-05T03:09:57.601Z,0
2017-05-05T03:11:09.820Z,0
2017-05-05T03:12:21.738Z,0
2017-05-05T03:13:34.271Z,0
2017-05-05T03:14:46.830Z,0
2017-05-05T03:15:59.346Z,0
2017-05-05T03:17:11.572Z,0
2017-05-05T03:18:24.095Z,0
2017-05-05T03:19:36.322Z,0
2017-05-05T03:20:48.842Z,0
2017-05-05T03:22:01.360Z,0
2017-05-05T03:23:13.284Z,0
2017-05-05T03:24:25.822Z,0
2017-05-05T03:25:38.365Z,0
2017-05-05T03:26:50.914Z,0
2017-05-05T03:28:03.456Z,0
2017-05-05T03:29:15.706Z,0
2017-05-05T03:30:28.223Z,0
2017-05-05T03:31:40.482Z,0
2017-05-05T03:32:53.040Z,0
2017-05-05T03:34:05.546Z,0
2017-05-05T03:35:17.466Z,0
2017-05-05T03:36:30.012Z,0
2017-05-05T03:37:42.560Z,0
2017-05-05T03:38:55.094Z,5
2017-05-05T03:40:07.039Z,5
2017-05-05T03:41:19.244Z,5
2017-05-05T03:42:31.795Z,5
2017-05-05T03:43:44.367Z,5
2017-05-05T03:44:56.602Z,5
2017-05-05T03:46:09.156Z,5
2017-05-05T03:47:21.690Z,5
2017-05-05T03:48:33.940Z,5
2017-05-05T03:49:46.470Z,5
2017-05-05T03:50:58.986Z,5
2017-05-05T03:52:11.208Z,5
2017-05-05T03:53:23.746Z,5
2017-05-05T03:54:36.529Z,5
2017-05-05T03:55:49.074Z,10
2017-05-05T03:57:01.616Z,10
2017-05-05T03:58:14.141Z,10
2017-05-05T03:59:26.685Z,15
2017-05-05T04:00:39.208Z,15
2017-05-05T04:01:51.725Z,15
2017-05-05T04:03:04.238Z,20
2017-05-05T04:04:16.816Z,20
2017-05-05T04:05:29.019Z,20
2017-05-05T04:06:41.239Z,25
2017-05-05T04:07:53.778Z,25
2017-05-05T04:09:06.320Z,30
2017-05-05T04:10:18.820Z,35
2017-05-05T04:11:31.350Z,35
2017-05-05T04:12:43.615Z,30
2017-05-05T04:13:56.134Z,35
2017-05-05T04:15:08.654Z,35
2017-05-05T04:16:21.197Z,30
2017-05-05T04:17:33.421Z,25
2017-05-05T04:18:45.967Z,25
2017-05-05T04:19:58.513Z,25
2017-05-05T04:21:11.051Z,25
2017-05-05T04:22:23.302Z,25
2017-05-05T04:23:35.847Z,25
2017-05-05T04:24:48.401Z,20
2017-05-05T04:26:00.946Z,20
2017-05-05T04:27:13.735Z,20
2017-05-05T04:28:26.260Z,20
2017-05-05T04:29:38.812Z,20
2017-05-05T04:30:51.353Z,20
2017-05-05T04:32:03.555Z,20
2017-05-05T04:33:16.415Z,20
2017-05-05T04:34:28.620Z,20
2017-05-05T04:35:41.142Z,20
2017-05-05T04:36:53.359Z,20
2017-05-05T04:38:05.944Z,20
2017-05-05T04:39:18.190Z,25
2017-05-05T04:40:30.720Z,25
2017-05-05T04:41:43.259Z,25
2017-05-05T04:42:55.502Z,25
2017-05-05T04:44:08.023Z,25
2017-05-05T04:45:20.255Z,25
2017-05-05T04:46:32.793Z,30
2017-05-05T04:47:45.344Z,30
2017-05-05T04:48:57.861Z,30
2017-05-05T04:50:10.364Z,30
2017-05-05T04:51:22.585Z,35
2017-05-05T04:52:35.145Z,40
2017-05-05T04:53:47.673Z,35
2017-05-05T04:55:00.218Z,45
2017-05-05T04:56:12.436Z,45
2017-05-05T04:57:24.966Z,50
2017-05-05T04:58:37.499Z,55
2017-05-05T04:59:50.024Z,60
2017-05-05T05:01:02.552Z,65
2017-05-05T05:02:14.762Z,60
2017-05-05T05:03:27.296Z,65
2017-05-05T05:04:39.814Z,65
2017-05-05T05:05:52.600Z,75
2017-05-05T05:07:05.135Z,75
2017-05-05T05:08:17.379Z,85
2017-05-05T05:09:29.349Z,90
2017-05-05T05:10:41.866Z,100
2017-05-05T05:11:54.409Z,100
2017-05-05T05:13:06.976Z,100
2017-05-05T05:14:19.204Z,95
2017-05-05T05:15:31.749Z,90
2017-05-05T05:16:44.288Z,85
2017-05-05T05:17:56.818Z,95
2017-05-05T05:19:09.341Z,110
2017-05-05T05:20:21.885Z,140
2017-05-05T05:21:34.732Z,150
2017-05-05T05:22:47.254Z,160
2017-05-05T05:23:59.814Z,150
2017-05-05T05:25:12.363Z,140
2017-05-05T05:26:24.588Z,120
2017-05-05T05:27:37.110Z,110
2017-05-05T05:28:49.648Z,95
2017-05-05T05:30:02.183Z,105
2017-05-05T05:31:14.392Z,110
2017-05-05T05:32:26.919Z,110
2017-05-05T05:33:39.441Z,110
2017-05-05T05:34:52.006Z,100
2017-05-05T05:36:04.551Z,110
2017-05-05T05:37:16.782Z,100
2017-05-05T05:38:29.347Z,90
2017-05-05T05:39:41.860Z,105
2017-05-05T05:40:54.410Z,100
2017-05-05T05:42:06.914Z,105
2017-05-05T05:43:19.711Z,105
2017-05-05T05:44:32.252Z,115
2017-05-05T05:45:44.773Z,110
2017-05-05T05:46:57.295Z,115
2017-05-05T05:48:09.223Z,115
2017-05-05T05:49:21.166Z,120
2017-05-05T05:50:33.702Z,125
2017-05-05T05:51:46.245Z,115
2017-05-05T05:52:58.776Z,110
2017-05-05T05:54:11.304Z,110
2017-05-05T05:55:23.533Z,115
2017-05-05T05:56:36.056Z,115
2017-05-05T05:57:48.586Z,125
2017-05-05T05:59:01.144Z,140
2017-05-05T06:00:12.997Z,155
2017-05-05T06:01:25.198Z,175
2017-05-05T06:02:37.720Z,195
2017-05-05T06:03:50.236Z,215
2017-05-05T06:05:02.153Z,230
2017-05-05T06:06:14.385Z,230
2017-05-05T06:07:26.942Z,240
2017-05-05T06:08:39.145Z,285
2017-05-05T06:09:51.684Z,305
2017-05-05T06:11:04.234Z,280
2017-05-05T06:12:16.451Z,265
2017-05-05T06:13:28.699Z,275
2017-05-05T06:14:41.225Z,290
2017-05-05T06:15:53.447Z,330
2017-05-05T06:17:06.005Z,345
2017-05-05T06:18:18.258Z,325
2017-05-05T06:19:30.804Z,305
2017-05-05T06:20:43.350Z,300
2017-05-05T06:21:55.811Z,285
2017-05-05T06:23:08.325Z,300
2017-05-05T06:24:20.546Z,300
2017-05-05T06:25:32.780Z,295
2017-05-05T06:26:45.310Z,295
2017-05-05T06:27:57.850Z,285
2017-05-05T06:29:10.403Z,295
2017-05-05T06:30:22.626Z,290
2017-05-05T06:31:35.144Z,290
2017-05-05T06:32:47.658Z,290
2017-05-05T06:34:00.213Z,280
2017-05-05T06:35:12.774Z,280
2017-05-05T06:36:24.722Z,275
2017-05-05T06:37:36.943Z,275
2017-05-05T06:38:49.493Z,280
2017-05-05T06:40:02.017Z,270
2017-05-05T06:41:14.209Z,250
2017-05-05T06:42:26.752Z,245
2017-05-05T06:43:39.280Z,240
2017-05-05T06:44:51.501Z,225
2017-05-05T06:46:03.736Z,240
2017-05-05T06:47:15.664Z,265
2017-05-05T06:48:28.185Z,255
2017-05-05T06:49:40.387Z,240
2017-05-05T06:50:52.919Z,235
2017-05-05T06:52:04.827Z,255
2017-05-05T06:53:16.771Z,265
2017-05-05T06:54:29.292Z,275
2017-05-05T06:55:41.840Z,290
2017-05-05T06:56:54.357Z,315
2017-05-05T06:58:06.898Z,345
2017-05-05T06:59:19.690Z,360
2017-05-05T07:00:31.911Z,370
2017-05-05T07:01:44.415Z,350
2017-05-05T07:02:56.911Z,340
2017-05-05T07:04:09.450Z,340
2017-05-05T07:05:21.381Z,340
2017-05-05T07:06:33.903Z,345
2017-05-05T07:07:46.469Z,350
2017-05-05T07:08:58.720Z,365
2017-05-05T07:10:10.941Z,370
2017-05-05T07:11:23.509Z,355
2017-05-05T07:12:36.030Z,340
2017-05-05T07:13:48.292Z,320
2017-05-05T07:15:00.813Z,300
2017-05-05T07:16:12.744Z,305
2017-05-05T07:17:25.283Z,315
2017-05-05T07:18:37.835Z,325
2017-05-05T07:19:50.357Z,325
2017-05-05T07:21:02.885Z,310
2017-05-05T07:22:15.139Z,305
2017-05-05T07:23:27.046Z,305
2017-05-05T07:24:39.587Z,280
2017-05-05T07:25:52.103Z,240
2017-05-05T07:27:04.058Z,225
2017-05-05T07:28:16.604Z,220
2017-05-05T07:29:28.841Z,225
2017-05-05T07:30:40.448Z,235
2017-05-05T07:31:52.980Z,230
2017-05-05T07:33:05.530Z,240
2017-05-05T07:34:17.477Z,265
2017-05-05T07:35:29.733Z,285
2017-05-05T07:36:41.964Z,290
2017-05-05T07:37:54.735Z,255
2017-05-05T07:39:06.942Z,235
2017-05-05T07:40:19.188Z,225
2017-05-05T07:41:31.747Z,235
2017-05-05T07:42:44.276Z,240
2017-05-05T07:43:56.515Z,240
2017-05-05T07:45:08.785Z,245
2017-05-05T07:46:21.315Z,260
2017-05-05T07:47:33.839Z,255
2017-05-05T07:48:46.361Z,235
2017-05-05T07:49:58.898Z,225
2017-05-05T07:51:11.448Z,215
2017-05-05T07:52:23.371Z,200
2017-05-05T07:53:35.915Z,195
2017-05-05T07:54:48.466Z,195
2017-05-05T07:56:00.727Z,205
2017-05-05T07:57:13.256Z,215
2017-05-05T07:58:25.776Z,235
2017-05-05T07:59:38.020Z,250
2017-05-05T08:00:50.539Z,270
2017-05-05T08:02:03.081Z,285
2017-05-05T08:03:15.285Z,295
2017-05-05T08:04:27.830Z,295
2017-05-05T08:05:40.077Z,290
2017-05-05T08:06:52.324Z,280
2017-05-05T08:08:04.865Z,260
2017-05-05T08:09:17.092Z,240
2017-05-05T08:10:29.625Z,220
2017-05-05T08:11:42.130Z,220
2017-05-05T08:12:54.395Z,225
2017-05-05T08:14:06.919Z,240
2017-05-05T08:15:19.120Z,260
2017-05-05T08:16:31.340Z,280
2017-05-05T08:17:43.849Z,305
2017-05-05T08:18:56.085Z,320
2017-05-05T08:20:08.317Z,335
2017-05-05T08:21:20.573Z,335
2017-05-05T08:22:33.092Z,320
2017-05-05T08:23:45.333Z,305
2017-05-05T08:24:57.859Z,290
2017-05-05T08:26:10.100Z,280
2017-05-05T08:27:22.029Z,270
2017-05-05T08:28:34.246Z,265
2017-05-05T08:29:46.768Z,255
2017-05-05T08:30:59.314Z,260
2017-05-05T08:32:11.837Z,270
2017-05-05T08:33:24.079Z,290
2017-05-05T08:34:36.632Z,335
2017-05-05T08:35:49.198Z,380
2017-05-05T08:37:01.717Z,410
2017-05-05T08:38:13.643Z,430
2017-05-05T08:39:25.902Z,465
2017-05-05T08:40:38.135Z,495
2017-05-05T08:41:50.668Z,495
2017-05-05T08:43:02.902Z,445
2017-05-05T08:44:15.460Z,370
2017-05-05T08:45:27.647Z,360
2017-05-05T08:46:40.180Z,395
2017-05-05T08:47:52.726Z,430
2017-05-05T08:49:04.952Z,445
2017-05-05T08:50:17.178Z,425
2017-05-05T08:51:29.726Z,395
2017-05-05T08:52:41.666Z,380
2017-05-05T08:53:53.907Z,375
2017-05-05T08:55:06.460Z,370
2017-05-05T08:56:18.980Z,370
2017-05-05T08:57:31.224Z,375
2017-05-05T08:58:43.773Z,375
2017-05-05T08:59:56.292Z,375
2017-05-05T09:01:08.545Z,380
2017-05-05T09:02:21.107Z,390
2017-05-05T09:03:33.631Z,405
2017-05-05T09:04:45.892Z,415
2017-05-05T09:05:58.411Z,425
2017-05-05T09:07:10.946Z,415
2017-05-05T09:08:22.867Z,415
2017-05-05T09:09:35.129Z,435
2017-05-05T09:10:47.680Z,450
2017-05-05T09:12:00.216Z,475
2017-05-05T09:13:12.449Z,470
2017-05-05T09:14:24.969Z,450
2017-05-05T09:15:36.890Z,430
2017-05-05T09:16:49.411Z,415
2017-05-05T09:18:01.953Z,405
2017-05-05T09:19:14.178Z,405
2017-05-05T09:20:26.699Z,405
2017-05-05T09:21:38.921Z,400
2017-05-05T09:22:51.492Z,400
2017-05-05T09:24:04.054Z,405
2017-05-05T09:25:16.610Z,405
2017-05-05T09:26:29.155Z,385
2017-05-05T09:27:41.678Z,360
2017-05-05T09:28:53.892Z,335
2017-05-05T09:30:06.443Z,310
2017-05-05T09:31:18.701Z,300
2017-05-05T09:32:31.225Z,295
2017-05-05T09:33:43.451Z,300
2017-05-05T09:34:55.670Z,315
2017-05-05T09:36:07.620Z,330
2017-05-05T09:37:19.860Z,350
2017-05-05T09:38:32.409Z,375
2017-05-05T09:39:44.934Z,395
2017-05-05T09:40:57.452Z,415
2017-05-05T09:42:09.978Z,425
2017-05-05T09:43:22.222Z,425
2017-05-05T09:44:34.140Z,415
2017-05-05T09:45:46.665Z,415
2017-05-05T09:46:59.199Z,430
2017-05-05T09:48:11.759Z,460
2017-05-05T09:49:24.294Z,490
2017-05-05T09:50:36.821Z,495
2017-05-05T09:51:49.365Z,490
2017-05-05T09:53:01.606Z,485
2017-05-05T09:54:14.157Z,475
2017-05-05T09:55:26.674Z,475
2017-05-05T09:56:39.205Z,485
2017-05-05T09:57:51.747Z,510
2017-05-05T09:59:04.295Z,525
2017-05-05T10:00:16.215Z,540
2017-05-05T10:01:28.135Z,550
2017-05-05T10:02:40.704Z,545
2017-05-05T10:03:53.241Z,550
2017-05-05T10:05:05.774Z,560
2017-05-05T10:06:18.269Z,570
2017-05-05T10:07:30.802Z,575
2017-05-05T10:08:43.033Z,580
2017-05-05T10:09:55.553Z,575
2017-05-05T10:11:07.777Z,580
2017-05-05T10:12:19.995Z,575
2017-05-05T10:13:32.512Z,565
2017-05-05T10:14:45.032Z,550
2017-05-05T10:15:57.575Z,580
2017-05-05T10:17:10.104Z,650
2017-05-05T10:18:22.303Z,755
2017-05-05T10:19:34.520Z,855
2017-05-05T10:20:47.089Z,925
2017-05-05T10:21:59.668Z,975
2017-05-05T10:23:12.216Z,980
2017-05-05T10:24:24.157Z,930
2017-05-05T10:25:36.691Z,830
2017-05-05T10:26:48.925Z,745
2017-05-05T10:28:01.463Z,685
2017-05-05T10:29:13.691Z,670
2017-05-05T10:30:26.231Z,650
2017-05-05T10:31:38.471Z,630
2017-05-05T10:32:51.029Z,605
2017-05-05T10:34:03.550Z,560
2017-05-05T10:35:16.088Z,510
2017-05-05T10:36:28.318Z,475
2017-05-05T10:37:40.563Z,465
2017-05-05T10:38:52.800Z,465
2017-05-05T10:40:05.354Z,465
2017-05-05T10:41:16.992Z,465
2017-05-05T10:42:29.222Z,440
2017-05-05T10:43:41.764Z,420
2017-05-05T10:44:54.015Z,405
2017-05-05T10:46:06.230Z,405
2017-05-05T10:47:18.755Z,400
2017-05-05T10:48:31.277Z,385
2017-05-05T10:49:43.546Z,370
2017-05-05T10:50:55.785Z,350
2017-05-05T10:52:08.017Z,335
2017-05-05T10:53:20.273Z,315
2017-05-05T10:54:32.506Z,310
2017-05-05T10:55:45.042Z,305
2017-05-05T10:56:57.572Z,305
2017-05-05T10:58:09.789Z,305
2017-05-05T10:59:22.043Z,315
2017-05-05T11:00:34.602Z,320
2017-05-05T11:01:47.130Z,320
2017-05-05T11:02:59.691Z,320
2017-05-05T11:04:12.215Z,320
2017-05-05T11:05:24.458Z,330
2017-05-05T11:06:36.414Z,340
2017-05-05T11:07:48.973Z,350
2017-05-05T11:09:00.603Z,350
2017-05-05T11:10:12.545Z,365
2017-05-05T11:11:25.070Z,390
2017-05-05T11:12:37.566Z,410
2017-05-05T11:13:50.063Z,420
2017-05-05T11:15:02.578Z,405
2017-05-05T11:16:14.804Z,395
2017-05-05T11:17:27.325Z,375
2017-05-05T11:18:39.551Z,360
2017-05-05T11:19:51.492Z,340
2017-05-05T11:21:03.990Z,320
2017-05-05T11:22:16.200Z,310
2017-05-05T11:23:28.483Z,300
2017-05-05T11:24:41.003Z,290
2017-05-05T11:25:53.548Z,295
2017-05-05T11:27:06.067Z,310
2017-05-05T11:28:18.609Z,320
2017-05-05T11:29:30.838Z,330
2017-05-05T11:30:43.384Z,335
2017-05-05T11:31:55.943Z,340
2017-05-05T11:33:08.450Z,350
2017-05-05T11:34:20.713Z,370
2017-05-05T11:35:32.934Z,380
2017-05-05T11:36:44.889Z,385
2017-05-05T11:37:57.109Z,390
2017-05-05T11:39:09.655Z,395
2017-05-05T11:40:21.888Z,385
2017-05-05T11:41:33.238Z,375
2017-05-05T11:42:45.785Z,365
2017-05-05T11:43:58.306Z,365
2017-05-05T11:45:10.552Z,375
2017-05-05T11:46:23.076Z,385
2017-05-05T11:47:35.040Z,395
2017-05-05T11:48:47.568Z,405
2017-05-05T11:50:00.094Z,415
2017-05-05T11:51:12.334Z,430
2017-05-05T11:52:24.278Z,460
2017-05-05T11:53:36.805Z,475
2017-05-05T11:54:49.040Z,480
2017-05-05T11:56:01.269Z,475
2017-05-05T11:57:13.788Z,460
2017-05-05T11:58:26.240Z,440
2017-05-05T11:59:38.788Z,420
2017-05-05T12:00:51.327Z,405
2017-05-05T12:02:03.848Z,390
2017-05-05T12:03:16.390Z,385
2017-05-05T12:04:28.957Z,395
2017-05-05T12:05:40.587Z,410
2017-05-05T12:06:53.114Z,435
2017-05-05T12:08:05.653Z,450
2017-05-05T12:09:17.878Z,465
2017-05-05T12:10:30.098Z,470
2017-05-05T12:11:42.619Z,455
2017-05-05T12:12:54.837Z,425
2017-05-05T12:14:07.381Z,405
2017-05-05T12:15:19.923Z,385
2017-05-05T12:16:32.474Z,370
2017-05-05T12:17:45.024Z,350
2017-05-05T12:18:57.269Z,335
2017-05-05T12:20:10.092Z,325
2017-05-05T12:21:22.359Z,325
2017-05-05T12:22:34.895Z,325
2017-05-05T12:23:47.146Z,325
2017-05-05T12:24:59.691Z,320
2017-05-05T12:26:11.940Z,310
2017-05-05T12:27:24.192Z,305
2017-05-05T12:28:36.713Z,305
2017-05-05T12:29:48.933Z,310
2017-05-05T12:31:01.481Z,325
2017-05-05T12:32:14.051Z,335
2017-05-05T12:33:26.613Z,345
2017-05-05T12:34:39.143Z,345
2017-05-05T12:35:51.667Z,345
2017-05-05T12:37:03.881Z,355
2017-05-05T12:38:16.418Z,370
2017-05-05T12:39:28.968Z,400
2017-05-05T12:40:40.885Z,440
2017-05-05T12:41:53.441Z,460
2017-05-05T12:43:05.364Z,455
2017-05-05T12:44:17.604Z,440
2017-05-05T12:45:29.826Z,425
2017-05-05T12:46:42.372Z,415
2017-05-05T12:47:54.893Z,425
2017-05-05T12:49:07.458Z,435
2017-05-05T12:50:19.109Z,430
2017-05-05T12:51:31.348Z,400
2017-05-05T12:52:43.556Z,380
2017-05-05T12:53:56.075Z,370
2017-05-05T12:55:08.299Z,385
2017-05-05T12:56:20.514Z,395
2017-05-05T12:57:33.036Z,410
2017-05-05T12:58:45.560Z,420
2017-05-05T12:59:58.095Z,425
2017-05-05T13:01:10.297Z,435
2017-05-05T13:02:22.543Z,430
2017-05-05T13:03:34.493Z,425
2017-05-05T13:04:47.029Z,425
2017-05-05T13:05:59.551Z,425
2017-05-05T13:07:11.777Z,420
2017-05-05T13:08:24.305Z,410
2017-05-05T13:09:36.819Z,400
2017-05-05T13:10:49.361Z,400
2017-05-05T13:12:01.864Z,410
2017-05-05T13:13:14.088Z,435
2017-05-05T13:14:26.578Z,450
2017-05-05T13:15:39.130Z,430
2017-05-05T13:16:51.647Z,415
2017-05-05T13:18:04.159Z,420
2017-05-05T13:19:16.680Z,430
2017-05-05T13:20:28.957Z,435
2017-05-05T13:21:41.503Z,435
2017-05-05T13:22:53.703Z,435
2017-05-05T13:24:06.237Z,455
2017-05-05T13:25:17.884Z,465
2017-05-05T13:26:30.412Z,455
2017-05-05T13:27:42.950Z,440
2017-05-05T13:28:55.499Z,420
2017-05-05T13:30:07.750Z,415
2017-05-05T13:31:20.271Z,400
2017-05-05T13:32:32.796Z,375
2017-05-05T13:33:45.330Z,355
2017-05-05T13:34:57.862Z,355
2017-05-05T13:36:10.096Z,385
2017-05-05T13:37:22.629Z,385
2017-05-05T13:38:34.921Z,375
2017-05-05T13:39:47.442Z,355
2017-05-05T13:40:59.980Z,345
2017-05-05T13:42:12.212Z,340
2017-05-05T13:43:24.755Z,345
2017-05-05T13:44:37.297Z,345
2017-05-05T13:45:49.821Z,350
2017-05-05T13:47:02.363Z,340
2017-05-05T13:48:14.629Z,325
2017-05-05T13:49:26.862Z,315
2017-05-05T13:50:39.380Z,310
2017-05-05T13:51:51.904Z,310
2017-05-05T13:53:04.125Z,310
2017-05-05T13:54:16.078Z,310
2017-05-05T13:55:28.593Z,320
2017-05-05T13:56:41.127Z,330
2017-05-05T13:57:53.657Z,345
2017-05-05T13:59:06.172Z,365
2017-05-05T14:00:18.700Z,385
2017-05-05T14:01:31.247Z,400
2017-05-05T14:02:43.490Z,405
2017-05-05T14:03:56.029Z,400
2017-05-05T14:05:08.321Z,400
2017-05-05T14:06:20.574Z,395
2017-05-05T14:07:33.101Z,400
2017-05-05T14:08:45.622Z,405
2017-05-05T14:09:58.144Z,420
2017-05-05T14:11:10.661Z,430
2017-05-05T14:12:23.202Z,445
2017-05-05T14:13:35.426Z,440
2017-05-05T14:14:47.352Z,410
2017-05-05T14:15:59.644Z,405
2017-05-05T14:17:11.883Z,415
2017-05-05T14:18:24.429Z,425
2017-05-05T14:19:36.956Z,445
2017-05-05T14:20:48.909Z,450
2017-05-05T14:22:01.452Z,470
2017-05-05T14:23:13.673Z,480
2017-05-05T14:24:26.194Z,510
2017-05-05T14:25:38.767Z,510
2017-05-05T14:26:51.303Z,490
2017-05-05T14:28:03.556Z,460
2017-05-05T14:29:15.804Z,425
2017-05-05T14:30:28.345Z,405
2017-05-05T14:31:40.273Z,410
2017-05-05T14:32:52.817Z,420
2017-05-05T14:34:05.376Z,455
2017-05-05T14:35:17.634Z,500
2017-05-05T14:36:30.205Z,510
2017-05-05T14:37:42.775Z,535
2017-05-05T14:38:55.337Z,585
2017-05-05T14:40:07.878Z,635
2017-05-05T14:41:19.505Z,670
2017-05-05T14:42:31.732Z,705
2017-05-05T14:43:43.671Z,760
2017-05-05T14:44:56.193Z,835
2017-05-05T14:46:08.434Z,875
2017-05-05T14:47:20.673Z,870
2017-05-05T14:48:32.885Z,850
2017-05-05T14:49:45.127Z,815
2017-05-05T14:50:57.650Z,765
2017-05-05T14:52:09.888Z,735
2017-05-05T14:53:22.414Z,730
2017-05-05T14:54:34.913Z,755
2017-05-05T14:55:47.202Z,795
2017-05-05T14:56:59.735Z,890
2017-05-05T14:58:12.271Z,975
2017-05-05T14:59:24.515Z,975
2017-05-05T15:00:37.072Z,985
2017-05-05T15:01:49.010Z,975
2017-05-05T15:03:01.527Z,945
2017-05-05T15:04:13.756Z,915
2017-05-05T15:05:26.272Z,900
2017-05-05T15:06:38.828Z,905
2017-05-05T15:07:51.365Z,910
2017-05-05T15:09:03.894Z,890
2017-05-05T15:10:16.413Z,850
2017-05-05T15:11:28.957Z,795
2017-05-05T15:12:41.195Z,725
2017-05-05T15:13:53.424Z,655
2017-05-05T15:15:05.647Z,625
2017-05-05T15:16:18.190Z,635
2017-05-05T15:17:30.732Z,650
2017-05-05T15:18:43.284Z,700
2017-05-05T15:19:55.528Z,725
2017-05-05T15:21:08.101Z,695
2017-05-05T15:22:20.040Z,665
2017-05-05T15:23:32.571Z,630
2017-05-05T15:24:45.116Z,575
2017-05-05T15:25:57.385Z,540
2017-05-05T15:27:09.912Z,500
2017-05-05T15:28:21.595Z,455
2017-05-05T15:29:34.167Z,405
2017-05-05T15:30:46.708Z,375
2017-05-05T15:31:58.958Z,350
2017-05-05T15:33:11.482Z,335
2017-05-05T15:34:23.706Z,335
2017-05-05T15:35:36.228Z,340
2017-05-05T15:36:48.774Z,335
2017-05-05T15:38:01.016Z,320
2017-05-05T15:39:13.266Z,325
2017-05-05T15:40:25.490Z,335
2017-05-05T15:41:38.033Z,345
2017-05-05T15:42:50.580Z,345
2017-05-05T15:44:03.096Z,335
2017-05-05T15:45:15.038Z,315
2017-05-05T15:46:27.567Z,305
2017-05-05T15:47:40.109Z,305
2017-05-05T15:48:52.351Z,300
2017-05-05T15:50:04.596Z,290
2017-05-05T15:51:16.826Z,325
2017-05-05T15:52:29.367Z,320
2017-05-05T15:53:41.920Z,345
2017-05-05T15:54:54.480Z,350
2017-05-05T15:56:07.005Z,340
2017-05-05T15:57:18.930Z,325
2017-05-05T15:58:31.469Z,315
2017-05-05T15:59:44.019Z,310
2017-05-05T16:00:56.557Z,320
2017-05-05T16:02:09.362Z,340
2017-05-05T16:03:21.911Z,370
2017-05-05T16:04:34.207Z,405
2017-05-05T16:05:46.750Z,455
2017-05-05T16:06:59.286Z,515
2017-05-05T16:08:11.490Z,565
2017-05-05T16:09:23.738Z,570
2017-05-05T16:10:36.256Z,530
2017-05-05T16:11:48.794Z,500
2017-05-05T16:13:01.340Z,475
2017-05-05T16:14:13.861Z,450
2017-05-05T16:15:26.390Z,440
2017-05-05T16:16:38.617Z,440
2017-05-05T16:17:50.576Z,450
2017-05-05T16:19:02.528Z,475
2017-05-05T16:20:14.749Z,510
2017-05-05T16:21:27.290Z,530
2017-05-05T16:22:39.823Z,565
2017-05-05T16:23:52.063Z,575
2017-05-05T16:25:04.299Z,545
2017-05-05T16:26:16.524Z,525
2017-05-05T16:27:29.070Z,515
2017-05-05T16:28:41.325Z,515
2017-05-05T16:29:53.862Z,525
2017-05-05T16:31:06.391Z,525
2017-05-05T16:32:18.936Z,520
2017-05-05T16:33:31.183Z,505
2017-05-05T16:34:43.424Z,495
2017-05-05T16:35:55.645Z,470
2017-05-05T16:37:07.570Z,430
2017-05-05T16:38:19.233Z,385
2017-05-05T16:39:31.789Z,360
2017-05-05T16:40:44.350Z,345
2017-05-05T16:41:56.596Z,330
2017-05-05T16:43:09.146Z,315
2017-05-05T16:44:21.670Z,285
2017-05-05T16:45:33.912Z,255
2017-05-05T16:46:46.157Z,245
2017-05-05T16:47:58.680Z,220
2017-05-05T16:49:10.930Z,200
2017-05-05T16:50:23.147Z,185
2017-05-05T16:51:35.425Z,180
2017-05-05T16:52:47.947Z,190
2017-05-05T16:54:00.202Z,205
2017-05-05T16:55:12.459Z,225